sensor_id;sensor_type;location;lat;lon;timestamp;temperature;humidity
2967;DHT22;1493;51.496;7.210;2023-02-01T00:02:26;6.10;99.90
2967;DHT22;1493;51.496;7.210;2023-02-01T00:04:53;6.10;99.90
2967;DHT22;1493;51.496;7.210;2023-02-01T00:07:19;6.20;99.90
2967;DHT22;1493;51.496;7.210;2023-02-01T00:09:46;6.20;99.90
2967;DHT22;1493;51.496;7.210;2023-02-01T00:12:13;6.30;99.90
2967;DHT22;1493;51.496;7.210;2023-02-01T00:14:40;6.30;99.90
2967;DHT22;1493;51.496;7.210;2023-02-01T00:17:07;6.30;99.90
2967;DHT22;1493;51.496;7.210;2023-02-01T00:19:35;6.30;99.90
2967;DHT22;1493;51.496;7.210;2023-02-01T00:22:02;6.40;99.90
2967;DHT22;1493;51.496;7.210;2023-02-01T00:24:29;6.30;95.40
2967;DHT22;1493;51.496;7.210;2023-02-01T00:26:55;6.20;65.80
2967;DHT22;1493;51.496;7.210;2023-02-01T00:29:22;6.30;42.80
2967;DHT22;1493;51.496;7.210;2023-02-01T00:31:50;6.20;28.90
2967;DHT22;1493;51.496;7.210;2023-02-01T00:34:18;6.30;20.70
2967;DHT22;1493;51.496;7.210;2023-02-01T00:36:46;6.30;2.40
2967;DHT22;1493;51.496;7.210;2023-02-01T00:39:13;6.30;2.90
2967;DHT22;1493;51.496;7.210;2023-02-01T00:41:40;6.30;1.00
2967;DHT22;1493;51.496;7.210;2023-02-01T00:44:07;6.30;1.00
2967;DHT22;1493;51.496;7.210;2023-02-01T00:46:34;6.30;1.00
2967;DHT22;1493;51.496;7.210;2023-02-01T00:49:01;6.30;1.00
2967;DHT22;1493;51.496;7.210;2023-02-01T00:51:29;6.30;1.00
2967;DHT22;1493;51.496;7.210;2023-02-01T00:53:57;6.30;1.00
2967;DHT22;1493;51.496;7.210;2023-02-01T00:56:25;6.30;1.00
2967;DHT22;1493;51.496;7.210;2023-02-01T00:58:52;6.30;1.00
2967;DHT22;1493;51.496;7.210;2023-02-01T01:01:21;6.40;1.00
2967;DHT22;1493;51.496;7.210;2023-02-01T01:03:50;6.30;1.00
2967;DHT22;1493;51.496;7.210;2023-02-01T01:06:19;6.30;1.00
2967;DHT22;1493;51.496;7.210;2023-02-01T01:08:46;6.30;1.00
2967;DHT22;1493;51.496;7.210;2023-02-01T01:11:17;6.30;1.00
2967;DHT22;1493;51.496;7.210;2023-02-01T01:13:47;6.30;1.00
2967;DHT22;1493;51.496;7.210;2023-02-01T01:16:15;6.40;1.00
2967;DHT22;1493;51.496;7.210;2023-02-01T01:18:42;6.40;1.00
2967;DHT22;1493;51.496;7.210;2023-02-01T01:21:11;6.40;1.00
2967;DHT22;1493;51.496;7.210;2023-02-01T01:23:39;6.40;1.00
2967;DHT22;1493;51.496;7.210;2023-02-01T01:26:07;6.40;1.00
2967;DHT22;1493;51.496;7.210;2023-02-01T01:28:36;6.40;1.00
2967;DHT22;1493;51.496;7.210;2023-02-01T01:31:03;6.40;1.00
2967;DHT22;1493;51.496;7.210;2023-02-01T01:33:30;6.40;1.00
2967;DHT22;1493;51.496;7.210;2023-02-01T01:35:56;6.40;1.00
2967;DHT22;1493;51.496;7.210;2023-02-01T01:38:23;6.40;1.00
2967;DHT22;1493;51.496;7.210;2023-02-01T01:40:50;6.40;1.00
2967;DHT22;1493;51.496;7.210;2023-02-01T01:43:19;6.30;1.00
2967;DHT22;1493;51.496;7.210;2023-02-01T01:45:49;6.30;1.00
2967;DHT22;1493;51.496;7.210;2023-02-01T01:48:20;6.30;1.00
2967;DHT22;1493;51.496;7.210;2023-02-01T01:50:51;6.30;1.00
2967;DHT22;1493;51.496;7.210;2023-02-01T01:53:23;6.40;1.00
2967;DHT22;1493;51.496;7.210;2023-02-01T01:55:53;6.30;1.00
2967;DHT22;1493;51.496;7.210;2023-02-01T01:58:23;6.30;1.00
2967;DHT22;1493;51.496;7.210;2023-02-01T02:00:53;6.30;1.00
2967;DHT22;1493;51.496;7.210;2023-02-01T02:03:22;6.30;1.00
2967;DHT22;1493;51.496;7.210;2023-02-01T02:05:52;6.30;1.00
2967;DHT22;1493;51.496;7.210;2023-02-01T02:08:20;6.30;1.00
2967;DHT22;1493;51.496;7.210;2023-02-01T02:10:48;6.30;1.00
2967;DHT22;1493;51.496;7.210;2023-02-01T02:13:31;6.30;1.00
2967;DHT22;1493;51.496;7.210;2023-02-01T02:16:11;6.30;1.00
2967;DHT22;1493;51.496;7.210;2023-02-01T02:18:47;6.30;1.00
2967;DHT22;1493;51.496;7.210;2023-02-01T02:21:23;6.20;1.00
2967;DHT22;1493;51.496;7.210;2023-02-01T02:24:15;6.20;1.00
2967;DHT22;1493;51.496;7.210;2023-02-01T02:27:03;6.20;1.00
2967;DHT22;1493;51.496;7.210;2023-02-01T02:33:03;6.20;1.00
2967;DHT22;1493;51.496;7.210;2023-02-01T02:35:40;6.20;1.00
2967;DHT22;1493;51.496;7.210;2023-02-01T02:38:17;6.20;1.00
2967;DHT22;1493;51.496;7.210;2023-02-01T02:40:49;6.20;1.00
2967;DHT22;1493;51.496;7.210;2023-02-01T02:43:21;6.20;1.00
2967;DHT22;1493;51.496;7.210;2023-02-01T02:46:11;6.20;1.00
2967;DHT22;1493;51.496;7.210;2023-02-01T02:49:00;6.20;1.00
2967;DHT22;1493;51.496;7.210;2023-02-01T02:51:34;6.20;1.00
2967;DHT22;1493;51.496;7.210;2023-02-01T02:54:36;6.20;1.00
2967;DHT22;1493;51.496;7.210;2023-02-01T02:57:16;6.10;1.00
2967;DHT22;1493;51.496;7.210;2023-02-01T03:00:04;6.10;1.00
2967;DHT22;1493;51.496;7.210;2023-02-01T03:02:49;6.10;1.00
2967;DHT22;1493;51.496;7.210;2023-02-01T03:05:36;6.10;1.00
2967;DHT22;1493;51.496;7.210;2023-02-01T03:08:11;6.10;1.00
2967;DHT22;1493;51.496;7.210;2023-02-01T03:10:44;6.10;1.00
2967;DHT22;1493;51.496;7.210;2023-02-01T03:13:17;6.10;1.00
2967;DHT22;1493;51.496;7.210;2023-02-01T03:15:51;6.00;1.00
2967;DHT22;1493;51.496;7.210;2023-02-01T03:18:26;5.90;1.00
2967;DHT22;1493;51.496;7.210;2023-02-01T03:20:56;5.90;1.00
2967;DHT22;1493;51.496;7.210;2023-02-01T03:23:30;5.90;1.00
2967;DHT22;1493;51.496;7.210;2023-02-01T03:25:58;5.90;1.00
2967;DHT22;1493;51.496;7.210;2023-02-01T03:28:30;5.90;1.00
2967;DHT22;1493;51.496;7.210;2023-02-01T03:30:58;6.00;1.00
2967;DHT22;1493;51.496;7.210;2023-02-01T03:33:26;6.00;1.00
2967;DHT22;1493;51.496;7.210;2023-02-01T03:36:01;6.00;1.00
2967;DHT22;1493;51.496;7.210;2023-02-01T03:38:33;6.00;1.00
2967;DHT22;1493;51.496;7.210;2023-02-01T03:41:09;6.00;1.00
2967;DHT22;1493;51.496;7.210;2023-02-01T03:43:46;6.00;1.00
2967;DHT22;1493;51.496;7.210;2023-02-01T03:46:18;6.00;1.00
2967;DHT22;1493;51.496;7.210;2023-02-01T03:48:48;6.00;1.00
2967;DHT22;1493;51.496;7.210;2023-02-01T03:51:17;6.00;1.00
2967;DHT22;1493;51.496;7.210;2023-02-01T03:53:47;6.00;1.00
2967;DHT22;1493;51.496;7.210;2023-02-01T03:56:16;6.00;1.00
2967;DHT22;1493;51.496;7.210;2023-02-01T03:58:43;6.10;1.00
2967;DHT22;1493;51.496;7.210;2023-02-01T04:01:26;6.00;1.00
2967;DHT22;1493;51.496;7.210;2023-02-01T04:03:53;6.00;1.00
2967;DHT22;1493;51.496;7.210;2023-02-01T04:06:20;6.00;1.00
2967;DHT22;1493;51.496;7.210;2023-02-01T04:08:48;6.00;1.00
2967;DHT22;1493;51.496;7.210;2023-02-01T04:11:15;6.00;1.00
2967;DHT22;1493;51.496;7.210;2023-02-01T04:13:42;6.00;1.00
2967;DHT22;1493;51.496;7.210;2023-02-01T04:16:08;6.00;1.00
2967;DHT22;1493;51.496;7.210;2023-02-01T04:18:35;6.10;1.00
2967;DHT22;1493;51.496;7.210;2023-02-01T04:21:03;6.10;1.00
2967;DHT22;1493;51.496;7.210;2023-02-01T04:23:30;6.10;1.00
2967;DHT22;1493;51.496;7.210;2023-02-01T04:26:01;6.10;1.00
2967;DHT22;1493;51.496;7.210;2023-02-01T04:28:28;6.10;1.00
2967;DHT22;1493;51.496;7.210;2023-02-01T04:33:31;6.20;1.00
2967;DHT22;1493;51.496;7.210;2023-02-01T04:35:57;6.10;1.00
2967;DHT22;1493;51.496;7.210;2023-02-01T04:38:24;6.20;1.00
2967;DHT22;1493;51.496;7.210;2023-02-01T04:40:52;6.20;1.00
2967;DHT22;1493;51.496;7.210;2023-02-01T04:43:20;6.20;1.00
2967;DHT22;1493;51.496;7.210;2023-02-01T04:45:48;6.30;1.00
2967;DHT22;1493;51.496;7.210;2023-02-01T04:48:15;6.20;1.00
2967;DHT22;1493;51.496;7.210;2023-02-01T04:50:43;6.20;1.00
2967;DHT22;1493;51.496;7.210;2023-02-01T04:53:12;6.20;1.00
2967;DHT22;1493;51.496;7.210;2023-02-01T04:55:39;6.20;1.00
2967;DHT22;1493;51.496;7.210;2023-02-01T04:58:06;6.20;1.00
2967;DHT22;1493;51.496;7.210;2023-02-01T05:00:34;6.20;1.00
2967;DHT22;1493;51.496;7.210;2023-02-01T05:03:01;6.20;1.00
2967;DHT22;1493;51.496;7.210;2023-02-01T05:05:28;6.30;1.00
2967;DHT22;1493;51.496;7.210;2023-02-01T05:07:55;6.30;1.00
2967;DHT22;1493;51.496;7.210;2023-02-01T05:10:22;6.30;1.00
2967;DHT22;1493;51.496;7.210;2023-02-01T05:12:49;6.30;1.00
2967;DHT22;1493;51.496;7.210;2023-02-01T05:15:34;6.20;1.00
2967;DHT22;1493;51.496;7.210;2023-02-01T05:18:01;6.20;1.00
2967;DHT22;1493;51.496;7.210;2023-02-01T05:20:28;6.20;1.00
2967;DHT22;1493;51.496;7.210;2023-02-01T05:22:54;6.20;1.00
2967;DHT22;1493;51.496;7.210;2023-02-01T05:25:21;6.20;1.00
2967;DHT22;1493;51.496;7.210;2023-02-01T05:27:48;6.10;1.00
2967;DHT22;1493;51.496;7.210;2023-02-01T05:30:15;6.20;1.00
2967;DHT22;1493;51.496;7.210;2023-02-01T05:32:43;6.20;1.00
2967;DHT22;1493;51.496;7.210;2023-02-01T05:35:10;6.20;1.00
2967;DHT22;1493;51.496;7.210;2023-02-01T05:37:37;6.20;1.00
2967;DHT22;1493;51.496;7.210;2023-02-01T05:40:05;6.20;1.00
2967;DHT22;1493;51.496;7.210;2023-02-01T05:42:31;6.20;1.00
2967;DHT22;1493;51.496;7.210;2023-02-01T05:44:58;6.10;1.00
2967;DHT22;1493;51.496;7.210;2023-02-01T05:47:25;6.10;1.00
2967;DHT22;1493;51.496;7.210;2023-02-01T05:49:53;6.10;1.00
2967;DHT22;1493;51.496;7.210;2023-02-01T05:52:20;6.00;1.00
2967;DHT22;1493;51.496;7.210;2023-02-01T05:54:48;5.90;1.00
2967;DHT22;1493;51.496;7.210;2023-02-01T05:57:15;5.80;1.00
2967;DHT22;1493;51.496;7.210;2023-02-01T05:59:42;5.70;1.00
2967;DHT22;1493;51.496;7.210;2023-02-01T06:02:10;5.60;1.00
2967;DHT22;1493;51.496;7.210;2023-02-01T06:04:37;5.50;1.00
2967;DHT22;1493;51.496;7.210;2023-02-01T06:07:05;5.50;3.90
2967;DHT22;1493;51.496;7.210;2023-02-01T06:09:35;5.60;1.40
2967;DHT22;1493;51.496;7.210;2023-02-01T06:12:02;5.60;14.00
2967;DHT22;1493;51.496;7.210;2023-02-01T06:14:29;5.70;3.30
2967;DHT22;1493;51.496;7.210;2023-02-01T06:16:56;5.80;1.00
2967;DHT22;1493;51.496;7.210;2023-02-01T06:19:23;5.90;1.00
2967;DHT22;1493;51.496;7.210;2023-02-01T06:21:50;5.90;1.00
2967;DHT22;1493;51.496;7.210;2023-02-01T06:24:18;6.00;1.00
2967;DHT22;1493;51.496;7.210;2023-02-01T06:26:45;6.00;1.00
2967;DHT22;1493;51.496;7.210;2023-02-01T06:29:12;6.10;1.00
2967;DHT22;1493;51.496;7.210;2023-02-01T06:31:39;6.10;1.00
2967;DHT22;1493;51.496;7.210;2023-02-01T06:34:07;6.10;1.00
2967;DHT22;1493;51.496;7.210;2023-02-01T06:36:34;6.10;1.00
2967;DHT22;1493;51.496;7.210;2023-02-01T06:39:01;6.20;1.00
2967;DHT22;1493;51.496;7.210;2023-02-01T06:41:29;6.20;1.00
2967;DHT22;1493;51.496;7.210;2023-02-01T06:43:56;6.20;1.00
2967;DHT22;1493;51.496;7.210;2023-02-01T06:46:23;6.20;1.00
2967;DHT22;1493;51.496;7.210;2023-02-01T06:48:50;6.20;1.00
2967;DHT22;1493;51.496;7.210;2023-02-01T06:51:21;6.20;1.00
2967;DHT22;1493;51.496;7.210;2023-02-01T06:53:49;6.20;1.00
2967;DHT22;1493;51.496;7.210;2023-02-01T06:56:16;6.30;1.00
2967;DHT22;1493;51.496;7.210;2023-02-01T06:58:44;6.30;1.00
2967;DHT22;1493;51.496;7.210;2023-02-01T07:01:12;6.30;1.00
2967;DHT22;1493;51.496;7.210;2023-02-01T07:03:39;6.30;1.00
2967;DHT22;1493;51.496;7.210;2023-02-01T07:06:07;6.30;1.00
2967;DHT22;1493;51.496;7.210;2023-02-01T07:08:35;6.30;1.00
2967;DHT22;1493;51.496;7.210;2023-02-01T07:11:03;6.30;1.00
2967;DHT22;1493;51.496;7.210;2023-02-01T07:13:30;6.30;1.00
2967;DHT22;1493;51.496;7.210;2023-02-01T07:16:02;6.30;1.00
2967;DHT22;1493;51.496;7.210;2023-02-01T07:18:29;6.30;1.00
2967;DHT22;1493;51.496;7.210;2023-02-01T07:20:57;6.40;1.00
2967;DHT22;1493;51.496;7.210;2023-02-01T07:23:24;6.40;1.00
2967;DHT22;1493;51.496;7.210;2023-02-01T07:25:55;6.40;1.00
2967;DHT22;1493;51.496;7.210;2023-02-01T07:28:24;6.40;1.00
2967;DHT22;1493;51.496;7.210;2023-02-01T07:30:51;6.40;1.00
2967;DHT22;1493;51.496;7.210;2023-02-01T07:33:21;6.40;1.00
2967;DHT22;1493;51.496;7.210;2023-02-01T07:35:49;6.40;1.00
2967;DHT22;1493;51.496;7.210;2023-02-01T07:38:16;6.50;1.00
2967;DHT22;1493;51.496;7.210;2023-02-01T07:40:44;6.50;1.00
2967;DHT22;1493;51.496;7.210;2023-02-01T07:43:11;6.50;1.00
2967;DHT22;1493;51.496;7.210;2023-02-01T07:45:39;6.50;1.00
2967;DHT22;1493;51.496;7.210;2023-02-01T07:48:06;6.50;1.00
2967;DHT22;1493;51.496;7.210;2023-02-01T07:50:34;6.50;1.00
2967;DHT22;1493;51.496;7.210;2023-02-01T07:53:01;6.60;1.00
2967;DHT22;1493;51.496;7.210;2023-02-01T07:55:28;6.50;1.00
2967;DHT22;1493;51.496;7.210;2023-02-01T07:57:57;6.60;1.00
2967;DHT22;1493;51.496;7.210;2023-02-01T08:00:25;6.50;1.00
2967;DHT22;1493;51.496;7.210;2023-02-01T08:03:09;6.50;1.00
2967;DHT22;1493;51.496;7.210;2023-02-01T08:05:37;6.50;1.00
2967;DHT22;1493;51.496;7.210;2023-02-01T08:08:05;6.50;1.00
2967;DHT22;1493;51.496;7.210;2023-02-01T08:10:32;6.50;1.00
2967;DHT22;1493;51.496;7.210;2023-02-01T08:13:00;6.60;1.00
2967;DHT22;1493;51.496;7.210;2023-02-01T08:15:30;6.60;1.00
2967;DHT22;1493;51.496;7.210;2023-02-01T08:17:57;6.60;1.00
2967;DHT22;1493;51.496;7.210;2023-02-01T08:20:24;6.60;1.00
2967;DHT22;1493;51.496;7.210;2023-02-01T08:22:52;6.60;1.00
2967;DHT22;1493;51.496;7.210;2023-02-01T08:25:19;6.50;1.00
2967;DHT22;1493;51.496;7.210;2023-02-01T08:27:46;6.60;1.00
2967;DHT22;1493;51.496;7.210;2023-02-01T08:30:13;6.70;1.00
2967;DHT22;1493;51.496;7.210;2023-02-01T08:32:40;6.70;1.00
2967;DHT22;1493;51.496;7.210;2023-02-01T08:35:08;6.70;1.00
2967;DHT22;1493;51.496;7.210;2023-02-01T08:37:36;6.70;1.00
2967;DHT22;1493;51.496;7.210;2023-02-01T08:40:05;6.70;1.00
2967;DHT22;1493;51.496;7.210;2023-02-01T08:42:32;6.70;1.00
2967;DHT22;1493;51.496;7.210;2023-02-01T08:45:17;6.70;1.00
2967;DHT22;1493;51.496;7.210;2023-02-01T08:47:45;6.80;1.00
2967;DHT22;1493;51.496;7.210;2023-02-01T08:50:13;6.90;1.00
2967;DHT22;1493;51.496;7.210;2023-02-01T08:52:40;6.90;1.00
2967;DHT22;1493;51.496;7.210;2023-02-01T08:55:09;6.90;1.00
2967;DHT22;1493;51.496;7.210;2023-02-01T08:57:36;7.00;1.00
2967;DHT22;1493;51.496;7.210;2023-02-01T09:00:04;7.10;1.00
2967;DHT22;1493;51.496;7.210;2023-02-01T09:02:31;7.20;1.00
2967;DHT22;1493;51.496;7.210;2023-02-01T09:04:58;7.20;1.00
2967;DHT22;1493;51.496;7.210;2023-02-01T09:07:25;7.10;1.00
2967;DHT22;1493;51.496;7.210;2023-02-01T09:09:54;7.00;1.00
2967;DHT22;1493;51.496;7.210;2023-02-01T09:12:23;6.90;1.00
2967;DHT22;1493;51.496;7.210;2023-02-01T09:14:50;6.90;1.00
2967;DHT22;1493;51.496;7.210;2023-02-01T09:17:16;6.90;1.00
2967;DHT22;1493;51.496;7.210;2023-02-01T09:19:43;6.90;1.00
2967;DHT22;1493;51.496;7.210;2023-02-01T09:22:10;7.00;1.00
2967;DHT22;1493;51.496;7.210;2023-02-01T09:24:37;7.00;1.00
2967;DHT22;1493;51.496;7.210;2023-02-01T09:27:04;7.10;1.00
2967;DHT22;1493;51.496;7.210;2023-02-01T09:29:32;7.30;1.00
2967;DHT22;1493;51.496;7.210;2023-02-01T09:31:59;7.20;1.00
2967;DHT22;1493;51.496;7.210;2023-02-01T09:34:26;7.30;1.00
2967;DHT22;1493;51.496;7.210;2023-02-01T09:36:52;7.20;1.00
2967;DHT22;1493;51.496;7.210;2023-02-01T09:39:19;7.20;1.00
2967;DHT22;1493;51.496;7.210;2023-02-01T09:41:55;7.10;1.00
2967;DHT22;1493;51.496;7.210;2023-02-01T09:44:45;7.10;1.00
2967;DHT22;1493;51.496;7.210;2023-02-01T09:47:18;7.10;1.00
2967;DHT22;1493;51.496;7.210;2023-02-01T09:49:51;7.20;1.00
2967;DHT22;1493;51.496;7.210;2023-02-01T09:52:25;7.20;1.00
2967;DHT22;1493;51.496;7.210;2023-02-01T09:54:57;7.30;1.00
2967;DHT22;1493;51.496;7.210;2023-02-01T09:57:38;7.30;1.00
2967;DHT22;1493;51.496;7.210;2023-02-01T10:00:14;7.30;1.00
2967;DHT22;1493;51.496;7.210;2023-02-01T10:02:43;7.40;1.00
2967;DHT22;1493;51.496;7.210;2023-02-01T10:05:15;7.50;99.90
2967;DHT22;1493;51.496;7.210;2023-02-01T10:07:49;7.50;99.90
2967;DHT22;1493;51.496;7.210;2023-02-01T10:10:26;7.60;99.90
2967;DHT22;1493;51.496;7.210;2023-02-01T10:13:21;7.50;99.90
2967;DHT22;1493;51.496;7.210;2023-02-01T10:15:58;7.50;99.90
2967;DHT22;1493;51.496;7.210;2023-02-01T10:18:40;7.60;99.90
2967;DHT22;1493;51.496;7.210;2023-02-01T10:21:18;7.70;99.90
2967;DHT22;1493;51.496;7.210;2023-02-01T10:24:07;7.80;99.90
2967;DHT22;1493;51.496;7.210;2023-02-01T10:26:41;7.90;99.90
2967;DHT22;1493;51.496;7.210;2023-02-01T10:29:15;7.90;99.90
2967;DHT22;1493;51.496;7.210;2023-02-01T10:34:26;7.80;99.90
2967;DHT22;1493;51.496;7.210;2023-02-01T10:36:56;7.80;99.90
2967;DHT22;1493;51.496;7.210;2023-02-01T10:39:24;7.70;99.90
2967;DHT22;1493;51.496;7.210;2023-02-01T10:41:51;7.70;99.90
2967;DHT22;1493;51.496;7.210;2023-02-01T10:44:20;7.60;99.90
2967;DHT22;1493;51.496;7.210;2023-02-01T10:46:49;7.60;99.90
2967;DHT22;1493;51.496;7.210;2023-02-01T10:49:20;7.60;99.90
2967;DHT22;1493;51.496;7.210;2023-02-01T10:51:54;7.50;99.90
2967;DHT22;1493;51.496;7.210;2023-02-01T10:54:23;7.40;99.90
2967;DHT22;1493;51.496;7.210;2023-02-01T10:56:58;7.40;99.90
2967;DHT22;1493;51.496;7.210;2023-02-01T10:59:27;7.50;99.90
2967;DHT22;1493;51.496;7.210;2023-02-01T11:01:59;7.50;99.90
2967;DHT22;1493;51.496;7.210;2023-02-01T11:04:33;7.40;99.90
2967;DHT22;1493;51.496;7.210;2023-02-01T11:07:12;7.40;99.90
2967;DHT22;1493;51.496;7.210;2023-02-01T11:09:49;7.40;99.90
2967;DHT22;1493;51.496;7.210;2023-02-01T11:12:27;7.40;99.90
2967;DHT22;1493;51.496;7.210;2023-02-01T11:14:59;7.50;99.90
2967;DHT22;1493;51.496;7.210;2023-02-01T11:17:32;7.50;99.90
2967;DHT22;1493;51.496;7.210;2023-02-01T11:20:03;7.60;99.90
2967;DHT22;1493;51.496;7.210;2023-02-01T11:22:32;7.60;99.90
2967;DHT22;1493;51.496;7.210;2023-02-01T11:25:01;7.70;99.90
2967;DHT22;1493;51.496;7.210;2023-02-01T11:27:34;7.80;99.90
2967;DHT22;1493;51.496;7.210;2023-02-01T11:30:02;7.80;99.90
2967;DHT22;1493;51.496;7.210;2023-02-01T11:32:30;7.70;99.90
2967;DHT22;1493;51.496;7.210;2023-02-01T11:35:01;7.60;99.90
2967;DHT22;1493;51.496;7.210;2023-02-01T11:37:31;7.60;99.90
2967;DHT22;1493;51.496;7.210;2023-02-01T11:40:02;7.70;99.90
2967;DHT22;1493;51.496;7.210;2023-02-01T11:42:29;7.70;99.90
2967;DHT22;1493;51.496;7.210;2023-02-01T11:45:19;7.80;99.90
2967;DHT22;1493;51.496;7.210;2023-02-01T11:47:46;7.80;99.90
2967;DHT22;1493;51.496;7.210;2023-02-01T11:50:25;7.90;99.90
2967;DHT22;1493;51.496;7.210;2023-02-01T11:53:17;7.80;99.90
2967;DHT22;1493;51.496;7.210;2023-02-01T11:55:56;7.80;99.90
2967;DHT22;1493;51.496;7.210;2023-02-01T11:58:42;7.70;99.90
2967;DHT22;1493;51.496;7.210;2023-02-01T12:01:26;7.50;1.00
2967;DHT22;1493;51.496;7.210;2023-02-01T12:06:56;7.00;15.30
2967;DHT22;1493;51.496;7.210;2023-02-01T12:09:35;6.80;98.80
2967;DHT22;1493;51.496;7.210;2023-02-01T12:12:16;6.70;99.90
2967;DHT22;1493;51.496;7.210;2023-02-01T12:14:59;6.60;99.90
2967;DHT22;1493;51.496;7.210;2023-02-01T12:17:59;6.50;99.90
2967;DHT22;1493;51.496;7.210;2023-02-01T12:20:47;6.50;99.90
2967;DHT22;1493;51.496;7.210;2023-02-01T12:23:27;6.50;99.90
2967;DHT22;1493;51.496;7.210;2023-02-01T12:26:11;6.50;99.90
2967;DHT22;1493;51.496;7.210;2023-02-01T12:31:52;6.40;99.90
2967;DHT22;1493;51.496;7.210;2023-02-01T12:34:38;6.40;99.90
2967;DHT22;1493;51.496;7.210;2023-02-01T12:37:11;6.40;99.90
2967;DHT22;1493;51.496;7.210;2023-02-01T12:39:48;6.40;99.90
2967;DHT22;1493;51.496;7.210;2023-02-01T12:42:22;6.40;99.90
2967;DHT22;1493;51.496;7.210;2023-02-01T12:44:53;6.50;99.90
2967;DHT22;1493;51.496;7.210;2023-02-01T12:47:26;6.50;99.90
2967;DHT22;1493;51.496;7.210;2023-02-01T12:49:59;6.60;99.90
2967;DHT22;1493;51.496;7.210;2023-02-01T12:52:32;6.70;94.50
2967;DHT22;1493;51.496;7.210;2023-02-01T12:55:08;6.80;91.00
2967;DHT22;1493;51.496;7.210;2023-02-01T12:57:38;6.90;45.60
2967;DHT22;1493;51.496;7.210;2023-02-01T13:00:17;7.00;1.00
2967;DHT22;1493;51.496;7.210;2023-02-01T13:02:52;7.00;1.00
2967;DHT22;1493;51.496;7.210;2023-02-01T13:05:22;7.10;1.00
2967;DHT22;1493;51.496;7.210;2023-02-01T13:07:55;7.10;1.00
2967;DHT22;1493;51.496;7.210;2023-02-01T13:10:31;7.10;1.00
2967;DHT22;1493;51.496;7.210;2023-02-01T13:13:03;7.10;1.00
2967;DHT22;1493;51.496;7.210;2023-02-01T13:15:37;7.00;1.00
2967;DHT22;1493;51.496;7.210;2023-02-01T13:18:09;7.00;1.40
2967;DHT22;1493;51.496;7.210;2023-02-01T13:20:47;7.10;1.00
2967;DHT22;1493;51.496;7.210;2023-02-01T13:23:23;7.10;1.00
2967;DHT22;1493;51.496;7.210;2023-02-01T13:25:54;7.10;1.00
2967;DHT22;1493;51.496;7.210;2023-02-01T13:28:25;7.10;1.00
2967;DHT22;1493;51.496;7.210;2023-02-01T13:31:04;7.20;1.00
2967;DHT22;1493;51.496;7.210;2023-02-01T13:33:50;7.20;1.00
2967;DHT22;1493;51.496;7.210;2023-02-01T13:36:44;7.30;1.00
2967;DHT22;1493;51.496;7.210;2023-02-01T13:39:32;7.40;1.00
2967;DHT22;1493;51.496;7.210;2023-02-01T13:42:04;7.40;1.00
2967;DHT22;1493;51.496;7.210;2023-02-01T13:44:40;7.40;1.00
2967;DHT22;1493;51.496;7.210;2023-02-01T13:47:15;7.40;1.00
2967;DHT22;1493;51.496;7.210;2023-02-01T13:49:43;7.40;1.00
2967;DHT22;1493;51.496;7.210;2023-02-01T13:52:26;7.50;1.00
2967;DHT22;1493;51.496;7.210;2023-02-01T13:55:28;7.50;1.00
2967;DHT22;1493;51.496;7.210;2023-02-01T13:58:04;7.50;1.00
2967;DHT22;1493;51.496;7.210;2023-02-01T14:00:33;7.60;1.00
2967;DHT22;1493;51.496;7.210;2023-02-01T14:03:13;7.70;1.00
2967;DHT22;1493;51.496;7.210;2023-02-01T14:09:30;7.70;1.00
2967;DHT22;1493;51.496;7.210;2023-02-01T14:12:41;7.70;1.00
2967;DHT22;1493;51.496;7.210;2023-02-01T14:15:23;7.70;1.00
2967;DHT22;1493;51.496;7.210;2023-02-01T14:17:50;7.60;1.00
2967;DHT22;1493;51.496;7.210;2023-02-01T14:20:45;7.60;1.00
2967;DHT22;1493;51.496;7.210;2023-02-01T14:23:25;7.60;1.00
2967;DHT22;1493;51.496;7.210;2023-02-01T14:26:18;7.70;1.00
2967;DHT22;1493;51.496;7.210;2023-02-01T14:29:08;7.70;1.00
2967;DHT22;1493;51.496;7.210;2023-02-01T14:31:48;7.80;1.00
2967;DHT22;1493;51.496;7.210;2023-02-01T14:34:30;7.80;1.00
2967;DHT22;1493;51.496;7.210;2023-02-01T14:36:59;7.80;1.00
2967;DHT22;1493;51.496;7.210;2023-02-01T14:39:30;7.80;1.00
2967;DHT22;1493;51.496;7.210;2023-02-01T14:42:01;7.70;1.00
2967;DHT22;1493;51.496;7.210;2023-02-01T14:44:32;7.70;1.00
2967;DHT22;1493;51.496;7.210;2023-02-01T14:47:09;7.80;1.00
2967;DHT22;1493;51.496;7.210;2023-02-01T14:49:42;7.80;1.00
2967;DHT22;1493;51.496;7.210;2023-02-01T14:52:17;7.90;1.00
2967;DHT22;1493;51.496;7.210;2023-02-01T14:54:47;7.90;1.00
2967;DHT22;1493;51.496;7.210;2023-02-01T14:57:27;7.80;1.00
2967;DHT22;1493;51.496;7.210;2023-02-01T15:00:07;7.80;1.00
2967;DHT22;1493;51.496;7.210;2023-02-01T15:02:36;7.80;1.00
2967;DHT22;1493;51.496;7.210;2023-02-01T15:05:31;7.80;1.00
2967;DHT22;1493;51.496;7.210;2023-02-01T15:08:03;7.80;1.00
2967;DHT22;1493;51.496;7.210;2023-02-01T15:10:33;7.80;1.00
2967;DHT22;1493;51.496;7.210;2023-02-01T15:13:18;7.70;1.00
2967;DHT22;1493;51.496;7.210;2023-02-01T15:16:04;7.60;1.00
2967;DHT22;1493;51.496;7.210;2023-02-01T15:18:32;7.60;1.00
2967;DHT22;1493;51.496;7.210;2023-02-01T15:21:01;7.60;1.00
2967;DHT22;1493;51.496;7.210;2023-02-01T15:23:28;7.60;1.00
2967;DHT22;1493;51.496;7.210;2023-02-01T15:25:55;7.70;1.00
2967;DHT22;1493;51.496;7.210;2023-02-01T15:28:23;7.70;1.00
2967;DHT22;1493;51.496;7.210;2023-02-01T15:30:57;7.70;1.00
2967;DHT22;1493;51.496;7.210;2023-02-01T15:33:25;7.70;1.00
2967;DHT22;1493;51.496;7.210;2023-02-01T15:36:07;7.80;1.00
2967;DHT22;1493;51.496;7.210;2023-02-01T15:38:37;7.80;1.00
2967;DHT22;1493;51.496;7.210;2023-02-01T15:41:07;7.90;1.00
2967;DHT22;1493;51.496;7.210;2023-02-01T15:43:38;7.80;1.00
2967;DHT22;1493;51.496;7.210;2023-02-01T15:46:11;7.90;1.00
2967;DHT22;1493;51.496;7.210;2023-02-01T15:48:43;7.90;1.00
2967;DHT22;1493;51.496;7.210;2023-02-01T15:51:14;7.90;1.00
2967;DHT22;1493;51.496;7.210;2023-02-01T15:53:45;8.00;99.90
2967;DHT22;1493;51.496;7.210;2023-02-01T15:56:13;8.00;99.90
2967;DHT22;1493;51.496;7.210;2023-02-01T15:58:42;8.00;99.90
2967;DHT22;1493;51.496;7.210;2023-02-01T16:01:12;8.00;99.90
2967;DHT22;1493;51.496;7.210;2023-02-01T16:03:41;8.00;99.90
2967;DHT22;1493;51.496;7.210;2023-02-01T16:06:10;8.00;99.90
2967;DHT22;1493;51.496;7.210;2023-02-01T16:08:49;8.00;99.90
2967;DHT22;1493;51.496;7.210;2023-02-01T16:11:26;8.00;1.00
2967;DHT22;1493;51.496;7.210;2023-02-01T16:13:55;7.90;1.00
2967;DHT22;1493;51.496;7.210;2023-02-01T16:16:22;7.80;1.00
2967;DHT22;1493;51.496;7.210;2023-02-01T16:18:49;7.70;1.00
2967;DHT22;1493;51.496;7.210;2023-02-01T16:21:16;7.70;1.00
2967;DHT22;1493;51.496;7.210;2023-02-01T16:23:48;7.60;1.00
2967;DHT22;1493;51.496;7.210;2023-02-01T16:26:16;7.60;1.00
2967;DHT22;1493;51.496;7.210;2023-02-01T16:28:43;7.70;1.00
2967;DHT22;1493;51.496;7.210;2023-02-01T16:31:12;7.70;1.00
2967;DHT22;1493;51.496;7.210;2023-02-01T16:33:46;7.80;1.00
2967;DHT22;1493;51.496;7.210;2023-02-01T16:36:14;7.80;1.00
2967;DHT22;1493;51.496;7.210;2023-02-01T16:38:41;7.80;1.00
2967;DHT22;1493;51.496;7.210;2023-02-01T16:41:13;7.90;1.00
2967;DHT22;1493;51.496;7.210;2023-02-01T16:43:40;7.80;1.00
2967;DHT22;1493;51.496;7.210;2023-02-01T16:46:13;7.80;1.00
2967;DHT22;1493;51.496;7.210;2023-02-01T16:48:42;7.80;1.00
2967;DHT22;1493;51.496;7.210;2023-02-01T16:51:13;7.70;1.00
2967;DHT22;1493;51.496;7.210;2023-02-01T16:53:40;7.70;1.00
2967;DHT22;1493;51.496;7.210;2023-02-01T16:56:13;7.60;22.30
2967;DHT22;1493;51.496;7.210;2023-02-01T16:58:40;7.40;41.60
2967;DHT22;1493;51.496;7.210;2023-02-01T17:01:09;7.30;64.00
2967;DHT22;1493;51.496;7.210;2023-02-01T17:03:36;7.30;90.90
2967;DHT22;1493;51.496;7.210;2023-02-01T17:06:03;7.30;33.80
2967;DHT22;1493;51.496;7.210;2023-02-01T17:08:32;7.20;69.70
2967;DHT22;1493;51.496;7.210;2023-02-01T17:11:00;7.30;80.70
2967;DHT22;1493;51.496;7.210;2023-02-01T17:13:28;7.20;99.90
2967;DHT22;1493;51.496;7.210;2023-02-01T17:15:58;7.00;99.90
2967;DHT22;1493;51.496;7.210;2023-02-01T17:18:27;6.70;99.90